Time;durP1;ratioP1;P1;durP2;ratioP2;P2;SDS_P1;SDS_P2;PMS_P1;PMS_P2;Temp;Humidity;BMP_temperature;BMP_pressure;BME280_temperature;BME280_humidity;BME280_pressure;Samples;Min_cycle;Max_cycle;Signal;HPM_P1;HPM_P2
2022/10/08 00:01:58;;;;;;;;;;;20.00;1.00;;;;;;5035491;28;19925;-55
2022/10/08 00:04:25;;;;;;;;;;;20.00;1.00;;;;;;5036155;28;19927;-53
2022/10/08 00:06:52;;;;;;;;;;;20.00;1.00;;;;;;5035641;28;20015;-50
2022/10/08 00:09:19;;;;;;;;;;;20.00;1.00;;;;;;5035591;28;20345;-53
2022/10/08 00:11:46;;;;;;;;;;;20.00;1.00;;;;;;5035595;28;20017;-55
2022/10/08 00:14:12;;;;;;;;;;;20.00;1.00;;;;;;5035459;28;19955;-54
2022/10/08 00:16:40;;;;;;;;;;;20.00;1.00;;;;;;5034925;28;20272;-52
2022/10/08 00:19:11;;;;;;;;;;;20.00;1.00;;;;;;5035198;28;20039;-54
2022/10/08 00:21:39;;;;;;;;;;;20.00;1.00;;;;;;5035270;28;19928;-54
2022/10/08 00:24:07;;;;;;;;;;;20.00;1.00;;;;;;5035590;28;20432;-49
2022/10/08 00:26:35;;;;;;;;;;;20.00;1.00;;;;;;5035375;28;19921;-53
2022/10/08 00:29:10;;;;;;;;;;;20.00;1.00;;;;;;5035762;28;20016;-50
2022/10/08 00:31:38;;;;;;;;;;;20.00;1.00;;;;;;5034968;28;19925;-50
2022/10/08 00:34:09;;;;;;;;;;;20.00;1.00;;;;;;5035625;28;19925;-55
2022/10/08 00:36:37;;;;;;;;;;;20.00;1.00;;;;;;5035290;28;20283;-56
2022/10/08 00:39:05;;;;;;;;;;;20.00;1.00;;;;;;5035061;28;19944;-53
2022/10/08 00:41:33;;;;;;;;;;;20.00;1.00;;;;;;5035108;28;19921;-51
2022/10/08 00:44:03;;;;;;;;;;;19.90;1.00;;;;;;5035319;28;19956;-54
2022/10/08 00:46:38;;;;;;;;;;;19.90;1.00;;;;;;5034806;28;19979;-54
2022/10/08 00:49:11;;;;;;;;;;;19.90;1.00;;;;;;5034596;28;20008;-55
2022/10/08 00:51:49;;;;;;;;;;;20.00;1.00;;;;;;5034408;28;19921;-50
2022/10/08 00:54:17;;;;;;;;;;;19.90;1.00;;;;;;5034887;28;20027;-50
2022/10/08 00:56:46;;;;;;;;;;;19.90;1.00;;;;;;5034661;28;19925;-50
2022/10/08 00:59:13;;;;;;;;;;;20.00;1.00;;;;;;5034586;28;19968;-51
2022/10/08 01:01:42;;;;;;;;;;;19.90;1.00;;;;;;5034251;28;19924;-53
2022/10/08 01:04:09;;;;;;;;;;;19.90;1.00;;;;;;5034609;28;20379;-49
2022/10/08 01:07:05;;;;;;;;;;;20.00;1.00;;;;;;5035167;28;20332;-53
2022/10/08 01:09:34;;;;;;;;;;;19.90;1.00;;;;;;4998513;28;19925;-51
2022/10/08 01:12:07;;;;;;;;;;;19.90;1.00;;;;;;5034168;28;19956;-51
2022/10/08 01:14:51;;;;;;;;;;;19.90;1.00;;;;;;5034592;28;19935;-52
2022/10/08 01:17:30;;;;;;;;;;;19.90;1.00;;;;;;5034312;28;19964;-53
2022/10/08 01:20:11;;;;;;;;;;;19.90;1.00;;;;;;5034195;28;19928;-52
2022/10/08 01:22:41;;;;;;;;;;;19.90;1.00;;;;;;5034296;28;19928;-49
2022/10/08 01:25:43;;;;;;;;;;;19.90;1.00;;;;;;5034576;28;19921;-52
2022/10/08 01:28:31;;;;;;;;;;;19.90;1.00;;;;;;4992013;28;19932;-50
2022/10/08 01:31:10;;;;;;;;;;;19.80;1.00;;;;;;5031597;28;19921;-55
2022/10/08 01:33:41;;;;;;;;;;;19.80;1.00;;;;;;5033851;28;19979;-54
2022/10/08 01:36:10;;;;;;;;;;;19.80;1.00;;;;;;5033871;28;19921;-53
2022/10/08 01:38:40;;;;;;;;;;;19.80;1.00;;;;;;5034048;28;19924;-55
2022/10/08 01:41:08;;;;;;;;;;;19.70;1.00;;;;;;5034094;28;19925;-53
2022/10/08 01:43:37;;;;;;;;;;;19.80;1.00;;;;;;5033737;28;20271;-53
2022/10/08 01:46:13;;;;;;;;;;;19.80;1.00;;;;;;5033813;28;19952;-53
2022/10/08 01:48:41;;;;;;;;;;;19.80;1.00;;;;;;5033647;28;19921;-54
2022/10/08 01:51:12;;;;;;;;;;;19.80;1.00;;;;;;5033613;28;19929;-50
2022/10/08 01:53:40;;;;;;;;;;;19.80;1.00;;;;;;5033422;28;19928;-56
2022/10/08 01:56:09;;;;;;;;;;;19.80;1.00;;;;;;5033576;28;20370;-47
2022/10/08 01:58:56;;;;;;;;;;;19.80;1.00;;;;;;5033779;28;19925;-49
2022/10/08 02:01:29;;;;;;;;;;;19.80;1.00;;;;;;5033425;28;19921;-53
2022/10/08 02:06:44;;;;;;;;;;;19.80;1.00;;;;;;5033773;28;20268;-47
2022/10/08 02:09:10;;;;;;;;;;;19.80;1.00;;;;;;5033991;28;19943;-50
2022/10/08 02:11:37;;;;;;;;;;;19.80;1.00;;;;;;5033404;28;19925;-54
2022/10/08 02:14:04;;;;;;;;;;;19.80;1.00;;;;;;5033443;28;19941;-51
2022/10/08 02:16:31;;;;;;;;;;;19.80;1.00;;;;;;5033288;28;19968;-54
2022/10/08 02:19:05;;;;;;;;;;;19.70;1.00;;;;;;5033755;28;19963;-55
2022/10/08 02:21:33;;;;;;;;;;;19.80;1.00;;;;;;5033587;28;19921;-46
2022/10/08 02:24:06;;;;;;;;;;;19.70;1.00;;;;;;5033416;28;19967;-55
2022/10/08 02:26:35;;;;;;;;;;;19.80;1.00;;;;;;5033996;28;19921;-53
2022/10/08 02:29:06;;;;;;;;;;;19.70;1.00;;;;;;5033501;28;19920;-49
2022/10/08 02:31:35;;;;;;;;;;;19.70;1.00;;;;;;5033863;28;19928;-49
2022/10/08 02:34:05;;;;;;;;;;;19.70;1.00;;;;;;5033375;28;19921;-48
2022/10/08 02:36:36;;;;;;;;;;;19.70;1.00;;;;;;5033474;28;20290;-52
2022/10/08 02:39:04;;;;;;;;;;;19.70;1.00;;;;;;5034057;28;19928;-51
2022/10/08 02:41:33;;;;;;;;;;;19.70;1.00;;;;;;5036926;28;20019;-57
2022/10/08 02:44:04;;;;;;;;;;;19.70;1.00;;;;;;5036910;28;19944;-54
2022/10/08 02:46:34;;;;;;;;;;;19.70;1.00;;;;;;5036966;28;19921;-53
2022/10/08 02:49:05;;;;;;;;;;;19.70;1.00;;;;;;5036979;28;20280;-48
2022/10/08 02:51:35;;;;;;;;;;;19.70;1.00;;;;;;5036995;28;19978;-54
2022/10/08 02:54:03;;;;;;;;;;;19.70;1.00;;;;;;5037066;28;19948;-55
2022/10/08 02:56:35;;;;;;;;;;;19.70;1.00;;;;;;5037455;28;20318;-53
2022/10/08 02:59:03;;;;;;;;;;;19.70;1.00;;;;;;5035833;28;20322;-53
2022/10/08 03:01:37;;;;;;;;;;;19.60;1.00;;;;;;5037268;28;20279;-54
2022/10/08 03:04:10;;;;;;;;;;;19.60;1.00;;;;;;5036995;28;19992;-53
2022/10/08 03:06:36;;;;;;;;;;;19.60;1.00;;;;;;5036874;28;19991;-54
2022/10/08 03:09:05;;;;;;;;;;;19.60;1.00;;;;;;5036588;28;20375;-57
2022/10/08 03:11:33;;;;;;;;;;;19.70;1.00;;;;;;5036575;28;19921;-53
2022/10/08 03:14:02;;;;;;;;;;;19.60;1.00;;;;;;5036613;28;19920;-53
2022/10/08 03:16:39;;;;;;;;;;;19.60;1.00;;;;;;5037075;28;19921;-52
2022/10/08 03:19:06;;;;;;;;;;;19.60;1.00;;;;;;5036884;28;20015;-50
2022/10/08 03:21:33;;;;;;;;;;;19.70;1.00;;;;;;5036560;28;19921;-55
2022/10/08 03:24:00;;;;;;;;;;;19.60;1.00;;;;;;5036222;28;19948;-50
2022/10/08 03:26:27;;;;;;;;;;;19.60;1.00;;;;;;5036278;28;19932;-56
2022/10/08 03:28:53;;;;;;;;;;;19.60;1.00;;;;;;5036797;28;20387;-52
2022/10/08 03:31:20;;;;;;;;;;;19.60;1.00;;;;;;5036183;28;19921;-53
2022/10/08 03:33:50;;;;;;;;;;;19.60;1.00;;;;;;5035928;28;20102;-54
2022/10/08 03:36:17;;;;;;;;;;;19.50;1.00;;;;;;5036656;28;19944;-51
2022/10/08 03:38:44;;;;;;;;;;;19.50;1.00;;;;;;5034819;28;19964;-54
2022/10/08 03:41:10;;;;;;;;;;;19.50;1.00;;;;;;5036030;28;19925;-47
2022/10/08 03:43:37;;;;;;;;;;;19.50;1.00;;;;;;5035769;28;19979;-53
2022/10/08 03:46:04;;;;;;;;;;;19.50;1.00;;;;;;5035872;28;19928;-55
2022/10/08 03:48:31;;;;;;;;;;;19.50;1.00;;;;;;5036114;28;19921;-54
2022/10/08 03:50:59;;;;;;;;;;;19.50;1.00;;;;;;5035650;28;19968;-52
2022/10/08 03:53:26;;;;;;;;;;;19.50;1.00;;;;;;5034954;28;19921;-50
2022/10/08 03:55:53;;;;;;;;;;;19.50;1.00;;;;;;5035697;28;19964;-48
2022/10/08 03:58:20;;;;;;;;;;;19.50;1.00;;;;;;5035875;28;19921;-54
2022/10/08 04:00:57;;;;;;;;;;;19.50;1.00;;;;;;5035779;28;20294;-53
2022/10/08 04:03:24;;;;;;;;;;;19.50;1.00;;;;;;5035569;28;19928;-57
2022/10/08 04:05:51;;;;;;;;;;;19.50;1.00;;;;;;5035976;28;19967;-53
2022/10/08 04:08:18;;;;;;;;;;;19.60;1.00;;;;;;5035465;28;19921;-47
2022/10/08 04:10:44;;;;;;;;;;;19.50;1.00;;;;;;5036121;28;19921;-51
2022/10/08 04:13:11;;;;;;;;;;;19.50;1.00;;;;;;5035508;28;19944;-54
2022/10/08 04:15:38;;;;;;;;;;;19.50;1.00;;;;;;5035617;28;19921;-55
2022/10/08 04:18:06;;;;;;;;;;;19.50;1.00;;;;;;5035763;28;19921;-53
2022/10/08 04:20:33;;;;;;;;;;;19.50;1.00;;;;;;5035929;28;19921;-56
2022/10/08 04:22:59;;;;;;;;;;;19.50;1.00;;;;;;5034992;28;19955;-53
2022/10/08 04:25:26;;;;;;;;;;;19.50;1.00;;;;;;5035133;28;19921;-56
2022/10/08 04:27:52;;;;;;;;;;;19.50;1.00;;;;;;5035522;28;20283;-52
2022/10/08 04:30:19;;;;;;;;;;;19.50;1.00;;;;;;5034962;28;19975;-52
2022/10/08 04:32:46;;;;;;;;;;;19.40;1.00;;;;;;5034770;28;19959;-51
2022/10/08 04:35:13;;;;;;;;;;;19.40;1.00;;;;;;5035142;28;19953;-50
2022/10/08 04:37:39;;;;;;;;;;;19.40;1.00;;;;;;5034795;28;19974;-54
2022/10/08 04:40:07;;;;;;;;;;;19.40;1.00;;;;;;5035054;28;19948;-54
2022/10/08 04:42:33;;;;;;;;;;;19.40;1.00;;;;;;5034888;28;19927;-52
2022/10/08 04:45:00;;;;;;;;;;;19.40;1.00;;;;;;5034836;28;19998;-53
2022/10/08 04:47:27;;;;;;;;;;;19.40;1.00;;;;;;5034768;28;20004;-47
2022/10/08 04:49:53;;;;;;;;;;;19.40;1.00;;;;;;5034749;28;19925;-52
2022/10/08 04:52:20;;;;;;;;;;;19.40;1.00;;;;;;5034610;28;20322;-53
2022/10/08 04:54:47;;;;;;;;;;;19.40;1.00;;;;;;5034544;28;19925;-55
2022/10/08 04:57:14;;;;;;;;;;;19.40;1.00;;;;;;5034988;28;19944;-49
2022/10/08 04:59:41;;;;;;;;;;;19.40;1.00;;;;;;5035080;28;20351;-53
2022/10/08 05:02:27;;;;;;;;;;;19.40;1.00;;;;;;5034188;28;19924;-57
2022/10/08 05:04:54;;;;;;;;;;;19.40;1.00;;;;;;5035085;28;19928;-55
2022/10/08 05:07:21;;;;;;;;;;;19.40;1.00;;;;;;5034831;28;19928;-53
2022/10/08 05:09:48;;;;;;;;;;;19.40;1.00;;;;;;5034741;28;19939;-56
2022/10/08 05:12:15;;;;;;;;;;;19.30;1.00;;;;;;5034189;28;19956;-52
2022/10/08 05:14:41;;;;;;;;;;;19.30;1.00;;;;;;5034139;28;19927;-54
2022/10/08 05:17:08;;;;;;;;;;;19.40;1.00;;;;;;5034214;28;19932;-55
2022/10/08 05:19:35;;;;;;;;;;;19.30;1.00;;;;;;5034482;28;20452;-54
2022/10/08 05:22:01;;;;;;;;;;;19.30;1.00;;;;;;5034553;28;20357;-52
2022/10/08 05:24:28;;;;;;;;;;;19.30;1.00;;;;;;5034142;28;19960;-52
2022/10/08 05:26:55;;;;;;;;;;;19.30;1.00;;;;;;5034826;28;19920;-54
2022/10/08 05:29:25;;;;;;;;;;;19.30;1.00;;;;;;5034014;28;19943;-53
2022/10/08 05:31:51;;;;;;;;;;;19.30;1.00;;;;;;5034308;28;20321;-58
2022/10/08 05:34:18;;;;;;;;;;;19.30;1.00;;;;;;5033943;28;19920;-52
2022/10/08 05:36:45;;;;;;;;;;;19.30;1.00;;;;;;5033742;28;19928;-53
2022/10/08 05:39:12;;;;;;;;;;;19.30;1.00;;;;;;5034329;28;19967;-53
2022/10/08 05:41:39;;;;;;;;;;;19.30;1.00;;;;;;5034164;28;20019;-58
2022/10/08 05:44:06;;;;;;;;;;;19.30;1.00;;;;;;5033933;28;20375;-58
2022/10/08 05:46:34;;;;;;;;;;;19.30;1.00;;;;;;5034113;28;19928;-55
2022/10/08 05:49:02;;;;;;;;;;;19.30;1.00;;;;;;5033797;28;19921;-53
2022/10/08 05:51:29;;;;;;;;;;;19.30;1.00;;;;;;5033747;28;20011;-56
2022/10/08 05:53:57;;;;;;;;;;;19.30;1.00;;;;;;5032589;28;19929;-52
2022/10/08 05:56:24;;;;;;;;;;;19.30;1.00;;;;;;5030906;28;20325;-51
2022/10/08 05:58:51;;;;;;;;;;;19.30;1.00;;;;;;5026706;28;19974;-57
2022/10/08 06:01:20;;;;;;;;;;;19.30;1.00;;;;;;5033727;28;19932;-52
2022/10/08 06:03:47;;;;;;;;;;;19.30;1.00;;;;;;5033212;28;19921;-56
2022/10/08 06:06:14;;;;;;;;;;;19.30;1.00;;;;;;5033430;28;19925;-58
2022/10/08 06:08:41;;;;;;;;;;;19.30;1.00;;;;;;5033439;28;19967;-55
2022/10/08 06:11:07;;;;;;;;;;;19.30;1.00;;;;;;5034088;28;19925;-56
2022/10/08 06:13:34;;;;;;;;;;;19.30;1.00;;;;;;5033134;28;20431;-51
2022/10/08 06:16:02;;;;;;;;;;;19.30;1.00;;;;;;5036173;28;19921;-56
2022/10/08 06:18:30;;;;;;;;;;;19.30;1.00;;;;;;5037435;28;19921;-54
2022/10/08 06:21:01;;;;;;;;;;;19.30;1.00;;;;;;5038046;28;19921;-52
2022/10/08 06:23:28;;;;;;;;;;;19.30;1.00;;;;;;5037562;28;20410;-50
2022/10/08 06:25:54;;;;;;;;;;;19.30;1.00;;;;;;5037294;28;19977;-54
2022/10/08 06:28:21;;;;;;;;;;;19.20;1.00;;;;;;5037215;28;19928;-54
2022/10/08 06:30:48;;;;;;;;;;;19.20;1.00;;;;;;5037650;28;19970;-51
2022/10/08 06:33:15;;;;;;;;;;;19.20;1.00;;;;;;5037188;28;19924;-53
2022/10/08 06:35:42;;;;;;;;;;;19.20;1.00;;;;;;5037763;28;19925;-56
2022/10/08 06:38:09;;;;;;;;;;;19.20;1.00;;;;;;5037149;28;19921;-53
2022/10/08 06:40:38;;;;;;;;;;;19.20;1.00;;;;;;5037089;28;20313;-52
2022/10/08 06:43:06;;;;;;;;;;;19.20;1.00;;;;;;5037066;28;19921;-52
2022/10/08 06:45:40;;;;;;;;;;;19.20;1.00;;;;;;5037330;28;19921;-57
2022/10/08 06:48:08;;;;;;;;;;;19.20;1.00;;;;;;5037325;28;19967;-52
2022/10/08 06:50:35;;;;;;;;;;;19.20;1.00;;;;;;5037475;28;20055;-52
2022/10/08 06:53:02;;;;;;;;;;;19.20;1.00;;;;;;5036558;28;19960;-56
2022/10/08 06:55:30;;;;;;;;;;;19.20;1.00;;;;;;5035550;28;20290;-50
2022/10/08 06:57:56;;;;;;;;;;;19.10;1.00;;;;;;5036932;28;19921;-53
2022/10/08 07:00:23;;;;;;;;;;;19.10;1.00;;;;;;5036812;28;19975;-58
2022/10/08 07:02:50;;;;;;;;;;;19.10;1.00;;;;;;5036729;28;19943;-52
2022/10/08 07:05:17;;;;;;;;;;;19.10;1.00;;;;;;5036880;28;19975;-52
2022/10/08 07:07:44;;;;;;;;;;;19.10;1.00;;;;;;5037345;28;19924;-57
2022/10/08 07:10:11;;;;;;;;;;;19.10;1.00;;;;;;5036681;28;19921;-59
2022/10/08 07:12:37;;;;;;;;;;;19.10;1.00;;;;;;5036289;28;19921;-53
2022/10/08 07:15:04;;;;;;;;;;;19.10;1.00;;;;;;5036494;28;19921;-51
2022/10/08 07:17:31;;;;;;;;;;;19.00;1.00;;;;;;5036875;28;19921;-55
2022/10/08 07:19:58;;;;;;;;;;;19.00;1.00;;;;;;5036358;28;19928;-56
2022/10/08 07:22:25;;;;;;;;;;;19.00;1.00;;;;;;5036318;28;20359;-49
2022/10/08 07:24:51;;;;;;;;;;;19.00;1.00;;;;;;5036270;28;19920;-57
2022/10/08 07:27:19;;;;;;;;;;;18.90;1.00;;;;;;5035344;28;19971;-55
2022/10/08 07:29:45;;;;;;;;;;;18.90;1.00;;;;;;5036329;28;20478;-53
2022/10/08 07:32:12;;;;;;;;;;;18.90;1.00;;;;;;5036408;28;19921;-57
2022/10/08 07:34:39;;;;;;;;;;;18.90;1.00;;;;;;5036048;28;19928;-55
2022/10/08 07:37:05;;;;;;;;;;;18.90;1.00;;;;;;5035997;28;20377;-51
2022/10/08 07:39:32;;;;;;;;;;;18.90;1.00;;;;;;5036050;28;19920;-54
2022/10/08 07:41:59;;;;;;;;;;;18.90;1.00;;;;;;5035890;28;19928;-59
2022/10/08 07:44:25;;;;;;;;;;;18.90;1.00;;;;;;5035882;28;19921;-53
2022/10/08 07:46:52;;;;;;;;;;;18.90;1.00;;;;;;5036229;28;19936;-50
2022/10/08 07:49:19;;;;;;;;;;;18.90;1.00;;;;;;5035649;28;20367;-54
2022/10/08 07:51:46;;;;;;;;;;;18.90;1.00;;;;;;5035764;28;20287;-53
2022/10/08 07:54:14;;;;;;;;;;;18.80;1.00;;;;;;5035976;28;20004;-51
2022/10/08 07:56:41;;;;;;;;;;;18.80;1.00;;;;;;5036010;28;20279;-53
2022/10/08 07:59:08;;;;;;;;;;;18.90;1.00;;;;;;5035608;28;19931;-54
2022/10/08 08:01:35;;;;;;;;;;;18.80;1.00;;;;;;5035562;28;19921;-57
2022/10/08 08:04:04;;;;;;;;;;;18.90;1.00;;;;;;5035636;28;19921;-52
2022/10/08 08:06:31;;;;;;;;;;;18.90;1.00;;;;;;5035721;28;19999;-53
2022/10/08 08:08:58;;;;;;;;;;;18.90;1.00;;;;;;5035445;28;19925;-58
2022/10/08 08:11:25;;;;;;;;;;;18.90;1.00;;;;;;5035679;28;20283;-48
2022/10/08 08:13:52;;;;;;;;;;;18.80;1.00;;;;;;5035055;28;19920;-58
2022/10/08 08:16:20;;;;;;;;;;;18.80;1.00;;;;;;5035364;28;19971;-54
2022/10/08 08:18:48;;;;;;;;;;;18.80;1.00;;;;;;5035439;28;19942;-53
2022/10/08 08:21:16;;;;;;;;;;;18.90;1.00;;;;;;5035476;28;20359;-55
2022/10/08 08:23:44;;;;;;;;;;;19.00;1.00;;;;;;5035207;28;19983;-56
2022/10/08 08:26:12;;;;;;;;;;;19.00;1.00;;;;;;5035130;28;19925;-52
2022/10/08 08:28:39;;;;;;;;;;;19.10;1.00;;;;;;5035474;28;19924;-57
2022/10/08 08:31:13;;;;;;;;;;;19.20;1.00;;;;;;5035217;28;19921;-55
2022/10/08 08:33:41;;;;;;;;;;;19.40;1.00;;;;;;5034822;28;19921;-55
2022/10/08 08:36:08;;;;;;;;;;;19.50;1.00;;;;;;5035284;28;19920;-52
2022/10/08 08:38:35;;;;;;;;;;;19.50;1.00;;;;;;5034771;28;19921;-56
2022/10/08 08:41:20;;;;;;;;;;;19.60;1.00;;;;;;5035094;28;19921;-51
2022/10/08 08:43:47;;;;;;;;;;;19.60;1.00;;;;;;5034715;28;19936;-57
2022/10/08 08:46:17;;;;;;;;;;;19.60;1.00;;;;;;5034784;28;19956;-58
2022/10/08 08:48:44;;;;;;;;;;;19.60;1.00;;;;;;5034945;28;19960;-50
2022/10/08 08:51:11;;;;;;;;;;;19.60;1.00;;;;;;5034690;28;19921;-53
2022/10/08 08:53:38;;;;;;;;;;;19.60;1.00;;;;;;5034330;28;19921;-56
2022/10/08 08:56:07;;;;;;;;;;;19.60;1.00;;;;;;5034688;28;19944;-55
2022/10/08 08:58:34;;;;;;;;;;;19.60;1.00;;;;;;5034547;28;20383;-51
2022/10/08 09:01:07;;;;;;;;;;;19.70;1.00;;;;;;5034834;28;19921;-54
2022/10/08 09:03:43;;;;;;;;;;;19.70;1.00;;;;;;5034503;28;19928;-51
2022/10/08 09:06:13;;;;;;;;;;;19.70;1.00;;;;;;5034415;28;19929;-53
2022/10/08 09:08:42;;;;;;;;;;;19.80;1.00;;;;;;5034855;28;20278;-54
2022/10/08 09:11:12;;;;;;;;;;;19.80;1.00;;;;;;5034741;28;19928;-58
2022/10/08 09:13:42;;;;;;;;;;;19.80;1.00;;;;;;5033992;28;19920;-55
2022/10/08 09:16:11;;;;;;;;;;;19.80;1.00;;;;;;5034614;28;19921;-53
2022/10/08 09:18:39;;;;;;;;;;;19.80;1.00;;;;;;5034633;28;19925;-53
2022/10/08 09:21:05;;;;;;;;;;;19.80;1.00;;;;;;5034121;28;19948;-52
2022/10/08 09:23:33;;;;;;;;;;;19.80;1.00;;;;;;5034009;28;19921;-52
2022/10/08 09:26:02;;;;;;;;;;;19.80;1.00;;;;;;5034076;28;19921;-57
2022/10/08 09:28:36;;;;;;;;;;;19.80;1.00;;;;;;5034072;28;20055;-52
2022/10/08 09:31:11;;;;;;;;;;;19.80;1.00;;;;;;5034284;28;20414;-56
2022/10/08 09:33:38;;;;;;;;;;;19.90;1.00;;;;;;5033871;28;20015;-54
2022/10/08 09:36:05;;;;;;;;;;;19.90;1.00;;;;;;5034134;28;19971;-56
2022/10/08 09:38:34;;;;;;;;;;;20.00;1.00;;;;;;5033940;28;19928;-56
2022/10/08 09:41:05;;;;;;;;;;;20.00;1.00;;;;;;5033923;28;20338;-54
2022/10/08 09:43:33;;;;;;;;;;;20.00;1.00;;;;;;5033707;28;19921;-56
2022/10/08 09:46:04;;;;;;;;;;;20.00;1.00;;;;;;5033745;28;19921;-51
2022/10/08 09:48:31;;;;;;;;;;;20.00;1.00;;;;;;5033752;28;19927;-55
2022/10/08 09:51:00;;;;;;;;;;;20.10;1.00;;;;;;5033019;28;20375;-52
2022/10/08 09:53:47;;;;;;;;;;;20.10;1.00;;;;;;5032220;28;20338;-50
2022/10/08 09:56:14;;;;;;;;;;;20.10;1.00;;;;;;5026521;28;19925;-53
2022/10/08 09:58:47;;;;;;;;;;;20.10;1.00;;;;;;5034191;28;19928;-58
2022/10/08 10:01:15;;;;;;;;;;;20.10;1.00;;;;;;5034209;28;19921;-53
2022/10/08 10:03:49;;;;;;;;;;;20.10;1.00;;;;;;5033253;28;20016;-55
2022/10/08 10:06:23;;;;;;;;;;;20.10;1.00;;;;;;5034169;28;19920;-56
2022/10/08 10:08:55;;;;;;;;;;;20.10;1.00;;;;;;5033430;28;19921;-56
2022/10/08 10:11:28;;;;;;;;;;;20.10;1.00;;;;;;5033596;28;19921;-57
2022/10/08 10:13:56;;;;;;;;;;;20.10;1.00;;;;;;5033195;28;19936;-58
2022/10/08 10:16:25;;;;;;;;;;;20.10;1.00;;;;;;5033834;28;19921;-51
2022/10/08 10:18:59;;;;;;;;;;;20.10;1.00;;;;;;5033638;28;19921;-48
2022/10/08 10:21:33;;;;;;;;;;;20.10;1.00;;;;;;5034143;28;19921;-52
2022/10/08 10:24:18;;;;;;;;;;;20.10;1.00;;;;;;5033157;28;19921;-53
2022/10/08 10:26:46;;;;;;;;;;;20.10;1.00;;;;;;5034076;28;20016;-58
2022/10/08 10:29:19;;;;;;;;;;;20.10;1.00;;;;;;5033431;28;19975;-54
2022/10/08 10:32:01;;;;;;;;;;;20.10;1.00;;;;;;5033158;28;20398;-55
2022/10/08 10:34:31;;;;;;;;;;;20.10;1.00;;;;;;5033601;28;20406;-55
2022/10/08 10:37:17;;;;;;;;;;;20.20;1.00;;;;;;5033072;28;19921;-55
2022/10/08 10:39:44;;;;;;;;;;;20.20;1.00;;;;;;5033313;28;19925;-55
2022/10/08 10:42:20;;;;;;;;;;;20.10;1.00;;;;;;5032869;28;19964;-57
2022/10/08 10:44:55;;;;;;;;;;;20.10;1.00;;;;;;5033100;28;19921;-57
2022/10/08 10:47:23;;;;;;;;;;;20.10;1.00;;;;;;5033580;28;19925;-54
2022/10/08 10:49:57;;;;;;;;;;;20.10;1.00;;;;;;5033678;28;19928;-53
2022/10/08 10:52:23;;;;;;;;;;;20.00;1.00;;;;;;5032892;28;19971;-55
2022/10/08 10:54:50;;;;;;;;;;;20.00;1.00;;;;;;5032989;28;19983;-55
2022/10/08 10:57:25;;;;;;;;;;;20.00;1.00;;;;;;5033350;28;19968;-56
2022/10/08 10:59:55;;;;;;;;;;;20.00;1.00;;;;;;5032995;28;19967;-55
2022/10/08 11:02:25;;;;;;;;;;;20.00;1.00;;;;;;5036227;28;19967;-53
2022/10/08 11:04:58;;;;;;;;;;;19.90;1.00;;;;;;5036771;28;19921;-57
2022/10/08 11:07:36;;;;;;;;;;;19.90;1.00;;;;;;5036687;28;19960;-52
2022/10/08 11:10:21;;;;;;;;;;;19.90;1.00;;;;;;5036725;28;19928;-58
2022/10/08 11:13:06;;;;;;;;;;;19.90;1.00;;;;;;5036480;28;19921;-54
2022/10/08 11:15:40;;;;;;;;;;;19.90;1.00;;;;;;5036806;28;19948;-57
2022/10/08 11:18:13;;;;;;;;;;;19.90;1.00;;;;;;5036700;28;19921;-52
2022/10/08 11:21:05;;;;;;;;;;;19.90;1.00;;;;;;5036704;28;20413;-54
2022/10/08 11:23:50;;;;;;;;;;;19.90;1.00;;;;;;5036306;28;20349;-56
2022/10/08 11:26:24;;;;;;;;;;;19.90;1.00;;;;;;5036463;28;20334;-55
2022/10/08 11:29:08;;;;;;;;;;;19.90;1.00;;;;;;5036604;28;19931;-54
2022/10/08 11:31:35;;;;;;;;;;;19.90;1.00;;;;;;5036366;28;19921;-55
2022/10/08 11:34:02;;;;;;;;;;;19.90;1.00;;;;;;5036343;28;19925;-55
2022/10/08 11:36:35;;;;;;;;;;;20.00;1.00;;;;;;5035795;28;19921;-53
2022/10/08 11:39:05;;;;;;;;;;;19.90;1.00;;;;;;5035974;28;19982;-54
2022/10/08 11:41:37;;;;;;;;;;;20.00;1.00;;;;;;5036487;28;19932;-58
2022/10/08 11:44:07;;;;;;;;;;;20.00;1.00;;;;;;5036168;28;20413;-54
2022/10/08 11:46:35;;;;;;;;;;;20.00;1.00;;;;;;5036456;28;19921;-57
2022/10/08 11:49:11;;;;;;;;;;;20.00;1.00;;;;;;5036029;28;20326;-53
2022/10/08 11:51:38;;;;;;;;;;;20.00;1.00;;;;;;5035467;28;19944;-56
2022/10/08 11:54:08;;;;;;;;;;;20.00;1.00;;;;;;5035835;28;19921;-58
2022/10/08 11:56:37;;;;;;;;;;;20.00;1.00;;;;;;5036229;28;19921;-57
2022/10/08 11:59:26;;;;;;;;;;;20.00;1.00;;;;;;5035670;28;19925;-56
2022/10/08 12:01:55;;;;;;;;;;;20.00;1.00;;;;;;5035786;28;19925;-53
2022/10/08 12:04:26;;;;;;;;;;;20.00;1.00;;;;;;5035893;28;19983;-52
2022/10/08 12:07:05;;;;;;;;;;;20.00;1.00;;;;;;5035772;28;19928;-55
2022/10/08 12:09:54;;;;;;;;;;;20.00;1.00;;;;;;5035539;28;19921;-54
2022/10/08 12:12:21;;;;;;;;;;;19.90;1.00;;;;;;5034540;28;19921;-58
2022/10/08 12:14:48;;;;;;;;;;;19.90;1.00;;;;;;5035885;28;20337;-55
2022/10/08 12:17:15;;;;;;;;;;;19.90;1.00;;;;;;5035860;28;19921;-56
2022/10/08 12:19:43;;;;;;;;;;;19.90;1.00;;;;;;5035333;28;20390;-59
2022/10/08 12:22:12;;;;;;;;;;;19.90;1.00;;;;;;5035505;28;19921;-55
2022/10/08 12:24:39;;;;;;;;;;;19.90;1.00;;;;;;5035230;28;19928;-57
2022/10/08 12:27:16;;;;;;;;;;;19.80;1.00;;;;;;5035486;28;19967;-54
2022/10/08 12:30:00;;;;;;;;;;;19.80;1.00;;;;;;5035244;28;20008;-55
2022/10/08 12:32:30;;;;;;;;;;;19.80;1.00;;;;;;5035289;28;19921;-58
2022/10/08 12:34:57;;;;;;;;;;;19.80;1.00;;;;;;5035183;28;19925;-54
2022/10/08 12:37:36;;;;;;;;;;;19.80;1.00;;;;;;5034907;28;19921;-52
2022/10/08 12:40:26;;;;;;;;;;;19.80;1.00;;;;;;5035093;28;19992;-60
2022/10/08 12:42:57;;;;;;;;;;;19.80;1.00;;;;;;5015670;28;19928;-53
2022/10/08 12:45:38;;;;;;;;;;;19.80;1.00;;;;;;5035277;28;20012;-54
2022/10/08 12:48:15;;;;;;;;;;;19.80;1.00;;;;;;5035099;28;20032;-50
2022/10/08 12:50:51;;;;;;;;;;;19.80;1.00;;;;;;5034697;28;19921;-55
2022/10/08 12:53:18;;;;;;;;;;;19.80;1.00;;;;;;5034452;28;19930;-54
2022/10/08 12:55:47;;;;;;;;;;;19.80;1.00;;;;;;5034790;28;20491;-51
2022/10/08 12:58:19;;;;;;;;;;;19.70;1.00;;;;;;5034654;28;20429;-51
2022/10/08 13:00:54;;;;;;;;;;;19.70;1.00;;;;;;5034541;28;19922;-52
2022/10/08 13:03:21;;;;;;;;;;;19.70;1.00;;;;;;5034654;28;19924;-53
2022/10/08 13:05:48;;;;;;;;;;;19.70;1.00;;;;;;5034499;28;19948;-54
2022/10/08 13:08:30;;;;;;;;;;;19.70;1.00;;;;;;5034610;28;20310;-56
2022/10/08 13:10:58;;;;;;;;;;;19.70;1.00;;;;;;5034497;28;19928;-56
2022/10/08 13:13:39;;;;;;;;;;;19.70;1.00;;;;;;5034264;28;19921;-53
2022/10/08 13:16:20;;;;;;;;;;;19.80;1.00;;;;;;5034355;28;19928;-53
2022/10/08 13:18:48;;;;;;;;;;;19.70;1.00;;;;;;5034489;28;20382;-53
2022/10/08 13:21:30;;;;;;;;;;;19.70;1.00;;;;;;5034871;28;19990;-53
2022/10/08 13:23:57;;;;;;;;;;;19.70;1.00;;;;;;5034108;28;19921;-50
2022/10/08 13:26:43;;;;;;;;;;;19.80;1.00;;;;;;5034287;28;19921;-57
2022/10/08 13:29:22;;;;;;;;;;;19.80;1.00;;;;;;5034242;28;20469;-54
2022/10/08 13:31:58;;;;;;;;;;;19.80;1.00;;;;;;5033915;28;19921;-54
2022/10/08 13:34:33;;;;;;;;;;;19.80;1.00;;;;;;5033969;28;19921;-54
2022/10/08 13:37:01;;;;;;;;;;;19.80;1.00;;;;;;5034181;28;19921;-58
2022/10/08 13:39:33;;;;;;;;;;;19.80;1.00;;;;;;5033929;28;19955;-51
2022/10/08 13:42:01;;;;;;;;;;;19.80;1.00;;;;;;5033754;28;19921;-48
2022/10/08 13:44:28;;;;;;;;;;;19.80;1.00;;;;;;5033840;28;19928;-51
2022/10/08 13:46:55;;;;;;;;;;;19.80;1.00;;;;;;5034262;28;19971;-53
2022/10/08 13:49:28;;;;;;;;;;;19.80;1.00;;;;;;5033778;28;19928;-55
2022/10/08 13:51:56;;;;;;;;;;;19.80;1.00;;;;;;5033547;28;19971;-51
2022/10/08 13:54:29;;;;;;;;;;;19.80;1.00;;;;;;5033973;28;19921;-48
2022/10/08 13:56:56;;;;;;;;;;;19.80;1.00;;;;;;5033743;28;19928;-57
2022/10/08 13:59:23;;;;;;;;;;;19.80;1.00;;;;;;5033511;28;19943;-50
2022/10/08 14:01:56;;;;;;;;;;;19.80;1.00;;;;;;5033667;28;19975;-58
2022/10/08 14:04:23;;;;;;;;;;;19.80;1.00;;;;;;5033627;28;19975;-53
2022/10/08 14:06:51;;;;;;;;;;;19.80;1.00;;;;;;5033806;28;19975;-55
2022/10/08 14:09:20;;;;;;;;;;;19.80;1.00;;;;;;5033519;28;19943;-52
2022/10/08 14:11:49;;;;;;;;;;;19.80;1.00;;;;;;5033509;28;20347;-57
2022/10/08 14:14:16;;;;;;;;;;;19.80;1.00;;;;;;5033544;28;20274;-57
2022/10/08 14:16:42;;;;;;;;;;;19.80;1.00;;;;;;5033606;28;20444;-51
2022/10/08 14:19:09;;;;;;;;;;;19.90;1.00;;;;;;5033527;28;19925;-50
2022/10/08 14:21:38;;;;;;;;;;;19.90;1.00;;;;;;5033231;28;19982;-48
2022/10/08 14:24:05;;;;;;;;;;;19.90;1.00;;;;;;5033679;28;19921;-55
2022/10/08 14:26:33;;;;;;;;;;;19.90;1.00;;;;;;5033658;28;20362;-58
2022/10/08 14:28:59;;;;;;;;;;;19.90;1.00;;;;;;5033611;28;19921;-56
2022/10/08 14:31:29;;;;;;;;;;;20.00;1.00;;;;;;5033305;28;19921;-50
2022/10/08 14:33:56;;;;;;;;;;;20.00;1.00;;;;;;5033103;28;19921;-52
2022/10/08 14:36:25;;;;;;;;;;;20.00;1.00;;;;;;5035011;28;19956;-49
2022/10/08 14:38:52;;;;;;;;;;;20.00;1.00;;;;;;5037063;28;19929;-55
2022/10/08 14:41:18;;;;;;;;;;;20.00;1.00;;;;;;5037830;28;19921;-51
2022/10/08 14:43:45;;;;;;;;;;;20.00;1.00;;;;;;5036891;28;19928;-54
2022/10/08 14:46:12;;;;;;;;;;;20.00;1.00;;;;;;5037097;28;19929;-52
2022/10/08 14:48:39;;;;;;;;;;;20.10;1.00;;;;;;5037168;28;20370;-54
2022/10/08 14:51:05;;;;;;;;;;;20.10;1.00;;;;;;5037485;28;19967;-53